Time;durP1;ratioP1;P1;durP2;ratioP2;P2;SDS_P1;SDS_P2;PMS_P1;PMS_P2;Temp;Humidity;BMP_temperature;BMP_pressure;BME280_temperature;BME280_humidity;BME280_pressure;Samples;Min_cycle;Max_cycle;Signal;HPM_P1;HPM_P2
2023/07/27 00:00:46;;;;;;;;;;;;;;;16.96;95.01;101007.28;5070485;28;20037;-36
2023/07/27 00:03:11;;;;;;;4.20;3.30;;;;;;;16.83;99.32;100999.59;5069711;28;19916;-36
2023/07/27 00:05:36;;;;;;;;;;;;;;;16.91;95.71;100997.16;5070451;28;20259;-36
2023/07/27 00:08:02;;;;;;;4.50;3.67;;;;;;;16.73;100.00;100989.44;5069886;28;19916;-36
2023/07/27 00:10:28;;;;;;;;;;;;;;;16.83;96.96;100994.13;5062193;28;20278;-36
2023/07/27 00:12:54;;;;;;;4.53;3.40;;;;;;;16.68;100.00;100992.94;5056372;28;19912;-36
2023/07/27 00:15:19;;;;;;;;;;;;;;;16.77;97.62;100998.75;5057010;28;20032;-36
2023/07/27 00:17:44;;;;;;;5.85;3.70;;;;;;;16.57;100.00;100990.47;5057410;28;19913;-36
2023/07/27 00:20:10;;;;;;;;;;;;;;;16.70;98.08;100989.97;5056418;28;20025;-36
2023/07/27 00:22:35;;;;;;;8.65;4.07;;;;;;;16.50;100.00;100979.81;5056975;28;19905;-36
2023/07/27 00:25:00;;;;;;;;;;;;;;;16.67;99.62;100980.41;5056308;28;20374;-36
2023/07/27 00:27:25;;;;;;;5.17;3.63;;;;;;;16.54;100.00;100975.44;5056421;28;20314;-36
2023/07/27 00:29:51;;;;;;;;;;;;;;;16.64;100.00;100975.50;5056499;28;20272;-36
2023/07/27 00:32:16;;;;;;;4.40;3.97;;;;;;;16.46;100.00;100962.31;5056555;28;19962;-36
2023/07/27 00:34:41;;;;;;;;;;;;;;;16.60;100.00;100968.91;5056024;28;20263;-36
2023/07/27 00:37:07;;;;;;;6.30;4.23;;;;;;;16.40;100.00;100979.75;5055691;28;20003;-36
2023/07/27 00:39:33;;;;;;;;;;;;;;;16.48;100.00;100971.03;5056520;28;20306;-37
2023/07/27 00:41:58;;;;;;;7.22;4.18;;;;;;;16.31;100.00;100964.97;5056433;28;20310;-36
2023/07/27 00:44:23;;;;;;;;;;;;;;;16.40;100.00;100969.66;5055960;28;20075;-36
2023/07/27 00:46:50;;;;;;;4.72;4.03;;;;;;;16.18;100.00;100956.19;5056241;28;19916;-36
2023/07/27 00:49:15;;;;;;;4.85;4.30;;;;;;;16.09;100.00;100962.41;5055698;28;20025;-36
2023/07/27 00:51:42;;;;;;;;;;;;;;;16.24;100.00;100959.75;5056981;28;20396;-36
2023/07/27 00:54:09;;;;;;;5.00;4.30;;;;;;;16.07;100.00;100948.22;5056099;28;19909;-37
2023/07/27 00:56:37;;;;;;;5.43;4.38;;;;;;;16.03;100.00;100939.75;5055557;28;20025;-37
2023/07/27 00:59:03;;;;;;;6.07;3.85;;;;;;;16.05;100.00;100945.75;5055605;28;20049;-36
2023/07/27 01:01:29;;;;;;;4.63;3.88;;;;;;;15.99;100.00;100929.63;5055445;28;20021;-36
2023/07/27 01:03:55;;;;;;;;;;;;;;;16.13;100.00;100937.06;5055505;28;20048;-36
2023/07/27 01:06:20;;;;;;;6.07;4.07;;;;;;;15.87;100.00;100927.13;5070835;28;19909;-36
2023/07/27 01:08:46;;;;;;;;;;;;;;;16.02;100.00;100924.47;5055464;28;20116;-36
2023/07/27 01:11:23;;;;;;;4.90;3.83;;;;;;;15.89;100.00;100924.94;5054911;28;19909;-36
2023/07/27 01:13:54;;;;;;;6.43;4.40;;;;;;;15.79;100.00;100917.50;5055151;28;20032;-36
2023/07/27 01:16:30;;;;;;;5.45;4.18;;;;;;;15.68;100.00;100913.09;5055460;28;20397;-36
2023/07/27 01:19:26;;;;;;;8.25;4.32;;;;;;;15.78;100.00;100917.78;5055608;28;20025;-36
2023/07/27 01:22:09;;;;;;;6.95;4.63;;;;;;;15.75;100.00;100908.22;5054316;28;20048;-36
2023/07/27 01:24:46;;;;;;;4.82;4.30;;;;;;;15.76;100.00;100903.59;5054870;28;20423;-36
2023/07/27 01:27:30;;;;;;;4.93;4.28;;;;;;;15.70;100.00;100884.47;5054976;28;20036;-36
2023/07/27 01:30:08;;;;;;;4.95;4.45;;;;;;;15.76;100.00;100893.50;5054909;28;20073;-36
2023/07/27 01:32:37;;;;;;;4.97;4.32;;;;;;;15.66;100.00;100886.13;5055114;28;20079;-36
2023/07/27 01:35:06;;;;;;;5.22;4.22;;;;;;;15.73;100.00;100891.31;5054775;28;20533;-36
2023/07/27 01:37:34;;;;;;;5.05;3.80;;;;;;;15.70;100.00;100887.19;5055372;28;20029;-36
2023/07/27 01:40:02;;;;;;;5.70;4.80;;;;;;;15.69;100.00;100877.38;5054858;28;20063;-36
2023/07/27 01:42:29;;;;;;;5.22;4.13;;;;;;;15.75;100.00;100877.41;5055514;28;20036;-36
2023/07/27 01:44:56;;;;;;;6.18;4.20;;;;;;;15.70;100.00;100880.94;5054630;28;20021;-36
2023/07/27 01:47:23;;;;;;;4.28;3.83;;;;;;;15.61;100.00;100879.75;5054808;28;20033;-36
2023/07/27 01:49:49;;;;;;;6.47;4.80;;;;;;;15.51;100.00;100861.44;5054213;28;20028;-36
2023/07/27 01:52:16;;;;;;;6.68;4.50;;;;;;;15.58;100.00;100858.50;5054774;28;20074;-36
2023/07/27 01:54:41;;;;;;;4.80;4.07;;;;;;;15.59;100.00;100860.94;5054702;28;20047;-36
2023/07/27 01:57:08;;;;;;;;;;;;;;;15.69;100.00;100858.31;5054878;28;20453;-36
2023/07/27 01:59:34;;;;;;;5.93;4.57;;;;;;;15.61;100.00;100857.94;5054969;28;19963;-36
2023/07/27 02:02:00;;;;;;;;;;;;;;;15.68;100.00;100850.41;5055013;28;20433;-36
2023/07/27 02:04:26;;;;;;;8.57;4.15;;;;;;;15.55;100.00;100842.66;5054136;28;20353;-36
2023/07/27 02:06:51;;;;;;;;;;;;;;;15.61;100.00;100842.41;5055064;28;20074;-36
2023/07/27 02:09:17;;;;;;;4.90;4.15;;;;;;;15.50;100.00;100840.72;5054294;28;19912;-36
2023/07/27 02:11:44;;;;;;;;;;;;;;;15.55;100.00;100832.56;5054658;28;20067;-36
2023/07/27 02:14:21;;;;;;;5.57;4.40;;;;;;;15.30;100.00;100818.81;5053636;28;20349;-36
2023/07/27 02:16:56;;;;;;;7.18;5.03;;;;;;;15.28;100.00;100827.25;5054808;28;20061;-36
2023/07/27 02:19:28;;;;;;;8.50;4.97;;;;;;;15.27;100.00;100822.84;5053871;28;20139;-36
2023/07/27 02:21:56;;;;;;;6.47;4.90;;;;;;;15.22;100.00;100811.13;5053701;28;20032;-36
2023/07/27 02:24:22;;;;;;;8.25;5.97;;;;;;;15.36;100.00;100807.66;5054180;28;20025;-36
2023/07/27 02:26:47;;;;;;;7.88;5.18;;;;;;;15.26;100.00;100795.88;5053572;28;20017;-36
2023/07/27 02:29:13;;;;;;;;;;;;;;;15.45;100.00;100797.09;5054574;28;20025;-37
2023/07/27 02:31:38;;;;;;;7.45;4.72;;;;;;;15.25;100.00;100780.63;5054591;28;19908;-36
2023/07/27 02:34:03;;;;;;;;;;;;;;;15.39;100.00;100785.34;5053714;28;20108;-36
2023/07/27 02:36:29;;;;;;;6.50;4.87;;;;;;;15.32;100.00;100792.09;5053719;28;19948;-36
2023/07/27 02:38:54;;;;;;;;;;;;;;;15.40;100.00;100784.25;5054679;28;20599;-36
2023/07/27 02:41:19;;;;;;;6.57;5.00;;;;;;;15.23;100.00;100770.00;5054263;28;19909;-36
2023/07/27 02:43:44;;;;;;;5.97;5.35;;;;;;;15.18;100.00;100767.25;5053728;28;20328;-36
2023/07/27 02:46:10;;;;;;;;;;;;;;;15.30;100.00;100776.03;5054060;28;20127;-36
2023/07/27 02:48:35;;;;;;;6.60;5.27;;;;;;;15.18;100.00;100759.09;5053657;28;19908;-36
2023/07/27 02:51:01;;;;;;;;;;;;;;;15.27;100.00;100760.19;5054005;28;20031;-36
2023/07/27 02:53:26;;;;;;;7.88;5.30;;;;;;;15.06;100.00;100744.84;5053836;28;19920;-36
2023/07/27 02:55:59;;;;;;;6.78;5.50;;;;;;;15.14;100.00;100755.25;5053571;28;20025;-36
2023/07/27 02:58:25;;;;;;;9.32;5.22;;;;;;;15.14;100.00;100750.63;5053198;28;20052;-36
2023/07/27 03:00:53;;;;;;;8.10;4.88;;;;;;;15.11;100.00;100751.13;5053211;28;20041;-36
2023/07/27 03:03:19;;;;;;;6.05;5.32;;;;;;;15.14;100.00;100753.34;5053457;28;20021;-36
2023/07/27 03:05:44;;;;;;;;;;;;;;;15.28;100.00;100750.16;5054741;28;20072;-36
2023/07/27 03:08:09;;;;;;;6.63;5.15;;;;;;;15.17;100.00;100744.63;5053665;28;19915;-36
2023/07/27 03:10:36;;;;;;;;;;;;;;;15.24;100.00;100733.50;5053769;28;20104;-36
2023/07/27 03:13:01;;;;;;;5.63;4.75;;;;;;;15.10;100.00;100735.88;5053273;28;19908;-36
2023/07/27 03:15:26;;;;;;;;;;;;;;;15.18;100.00;100731.84;5053576;28;20338;-36
2023/07/27 03:17:51;;;;;;;5.27;4.60;;;;;;;15.05;100.00;100730.41;5052966;28;19908;-36
2023/07/27 03:20:17;;;;;;;6.47;4.77;;;;;;;14.97;100.00;100725.44;5052916;28;20259;-36
2023/07/27 03:22:42;;;;;;;;;;;;;;;15.05;100.00;100724.97;5054324;28;20309;-36
2023/07/27 03:25:08;;;;;;;6.23;4.40;;;;;;;14.98;100.00;100708.03;5053768;28;19962;-36
2023/07/27 03:27:33;;;;;;;5.35;4.35;;;;;;;14.86;100.00;100694.63;5053539;28;20247;-36
2023/07/27 03:29:58;;;;;;;;;;;;;;;15.01;100.00;100691.16;5053695;28;20104;-36
2023/07/27 03:32:23;;;;;;;6.63;4.50;;;;;;;14.90;100.00;100681.31;5053548;28;19908;-45
2023/07/27 03:34:49;;;;;;;;;;;;;;;14.98;100.00;100664.44;5053605;28;20060;-36
2023/07/27 03:37:14;;;;;;;5.80;4.07;;;;;;;14.87;100.00;100654.59;5053164;28;19905;-36
2023/07/27 03:39:39;;;;;;;6.07;4.38;;;;;;;14.86;100.00;100650.25;5052740;28;20349;-36
2023/07/27 03:42:05;;;;;;;;;;;;;;;14.92;100.00;100638.28;5053536;28;20055;-36
2023/07/27 03:44:30;;;;;;;6.82;4.38;;;;;;;14.82;100.00;100638.25;5053048;28;19915;-36
2023/07/27 03:46:55;;;;;;;;;;;;;;;14.91;100.00;100642.09;5057599;28;20078;-36
2023/07/27 03:49:21;;;;;;;5.47;4.30;;;;;;;14.77;100.00;100632.78;5056806;28;19904;-36
2023/07/27 03:51:46;;;;;;;;;;;;;;;14.88;100.00;100643.47;5057216;28;20223;-36
2023/07/27 03:54:12;;;;;;;6.03;4.43;;;;;;;14.85;100.00;100630.38;5057013;28;20300;-37
2023/07/27 03:56:37;;;;;;;6.63;4.32;;;;;;;14.82;100.00;100633.63;5057065;28;20247;-37
2023/07/27 03:59:02;;;;;;;;;;;;;;;14.89;100.00;100625.22;5057482;28;20120;-37
2023/07/27 04:01:27;;;;;;;4.83;4.23;;;;;;;14.80;100.00;100624.09;5057209;28;19913;-36
2023/07/27 04:03:53;;;;;;;;;;;;;;;14.88;100.00;100620.84;5056994;28;20311;-36
2023/07/27 04:06:18;;;;;;;5.10;4.20;;;;;;;14.84;100.00;100619.75;5056287;28;19915;-36
2023/07/27 04:08:43;;;;;;;;;;;;;;;14.87;100.00;100619.22;5056567;28;20028;-36
2023/07/27 04:11:08;;;;;;;5.90;4.33;;;;;;;14.77;100.00;100616.44;5056737;28;19908;-36
2023/07/27 04:13:34;;;;;;;5.33;4.07;;;;;;;14.68;100.00;100594.34;5056127;28;20282;-36
2023/07/27 04:15:59;;;;;;;5.25;3.90;;;;;;;14.79;100.00;100614.28;5056336;28;20294;-36
2023/07/27 04:18:24;;;;;;;;;;;;;;;14.86;100.00;100606.69;5056614;28;20060;-36
2023/07/27 04:20:50;;;;;;;6.67;4.27;;;;;;;14.78;100.00;100594.38;5056804;28;19909;-36
2023/07/27 04:23:15;;;;;;;5.40;3.83;;;;;;;14.71;100.00;100595.72;5056266;28;20298;-36
2023/07/27 04:25:40;;;;;;;;;;;;;;;14.80;100.00;100602.31;5056619;28;20025;-36
2023/07/27 04:28:06;;;;;;;4.30;3.38;;;;;;;14.78;100.00;100591.66;5056721;28;19958;-36
2023/07/27 04:30:31;;;;;;;;;;;;;;;14.86;100.00;100579.47;5056782;28;20420;-36
2023/07/27 04:32:56;;;;;;;4.17;3.47;;;;;;;14.79;100.00;100579.72;5056864;28;20244;-36
2023/07/27 04:35:22;;;;;;;4.05;3.53;;;;;;;14.64;100.00;100555.97;5056450;28;20339;-36
2023/07/27 04:37:47;;;;;;;;;;;;;;;14.79;100.00;100574.28;5057082;28;20033;-36
2023/07/27 04:40:13;;;;;;;5.00;3.37;;;;;;;14.77;100.00;100570.16;5055415;28;19913;-36
2023/07/27 04:42:39;;;;;;;4.28;3.08;;;;;;;14.71;100.00;100557.63;5056626;28;20266;-36
2023/07/27 04:45:04;;;;;;;;;;;;;;;14.81;100.00;100565.84;5056236;28;20021;-36
2023/07/27 04:47:29;;;;;;;4.70;3.25;;;;;;;14.70;100.00;100553.28;5055482;28;19904;-36
2023/07/27 04:49:55;;;;;;;;;;;;;;;14.81;100.00;100552.22;5056104;28;20044;-37
2023/07/27 04:52:20;;;;;;;3.20;2.53;;;;;;;14.75;100.00;100545.13;5055651;28;19904;-36
2023/07/27 04:54:45;;;;;;;;;;;;;;;14.85;100.00;100554.16;5056361;28;20032;-36
2023/07/27 04:57:10;;;;;;;3.50;2.73;;;;;;;14.84;100.00;100540.81;5055247;28;19904;-36
2023/07/27 04:59:36;;;;;;;2.88;2.60;;;;;;;14.80;100.00;100545.97;5055449;28;20303;-36
2023/07/27 05:02:02;;;;;;;;;;;;;;;14.86;100.00;100539.44;5055713;28;20063;-36
2023/07/27 05:04:27;;;;;;;2.75;2.38;;;;;;;14.81;100.00;100536.72;5055400;28;19932;-36
2023/07/27 05:06:52;;;;;;;3.88;2.53;;;;;;;14.78;100.00;100536.41;5055723;28;20055;-36
2023/07/27 05:09:17;;;;;;;;;;;;;;;14.82;100.00;100535.63;5055506;28;20056;-36
2023/07/27 05:11:43;;;;;;;3.35;2.70;;;;;;;14.81;100.00;100528.53;5055512;28;19963;-36
2023/07/27 05:14:08;;;;;;;;;;;;;;;14.87;100.00;100532.91;5055336;28;20438;-37
2023/07/27 05:16:33;;;;;;;3.23;2.40;;;;;;;14.80;100.00;100521.47;5054654;28;20249;-36
2023/07/27 05:18:59;;;;;;;3.13;2.37;;;;;;;14.82;100.00;100524.72;5054774;28;20666;-36
2023/07/27 05:21:24;;;;;;;3.60;2.60;;;;;;;14.86;100.00;100512.22;5054485;28;20671;-36
2023/07/27 05:23:50;;;;;;;2.97;2.58;;;;;;;14.84;100.00;100516.31;5054489;28;20032;-36
2023/07/27 05:26:15;;;;;;;;;;;;;;;14.91;100.00;100517.69;5055191;28;20025;-37
2023/07/27 05:28:40;;;;;;;2.40;2.10;;;;;;;14.92;100.00;100510.34;5054627;28;19957;-37
2023/07/27 05:31:06;;;;;;;;;;;;;;;14.97;100.00;100493.19;5054774;28;20075;-37
2023/07/27 05:33:32;;;;;;;4.05;2.17;;;;;;;14.85;100.00;100490.72;5054285;28;20001;-37
2023/07/27 05:35:57;;;;;;;;;;;;;;;14.93;100.00;100501.91;5055221;28;20067;-37
2023/07/27 05:38:22;;;;;;;2.83;2.27;;;;;;;14.92;100.00;100502.97;5054661;28;20233;-37
2023/07/27 05:40:48;;;;;;;4.22;2.65;;;;;;;14.91;100.00;100500.53;5054946;28;20263;-37
2023/07/27 05:43:13;;;;;;;3.15;2.30;;;;;;;14.86;100.00;100485.00;5054859;28;20369;-37
2023/07/27 05:45:38;;;;;;;;;;;;;;;14.98;100.00;100490.19;5055319;28;20025;-37
2023/07/27 05:48:05;;;;;;;2.50;2.30;;;;;;;14.96;100.00;100492.38;5054557;28;19912;-37
2023/07/27 05:50:31;;;;;;;2.35;1.95;;;;;;;14.98;100.00;100492.91;5054151;28;20036;-37
2023/07/27 05:52:56;;;;;;;;;;;;;;;15.04;100.00;100493.78;5054308;28;20437;-37
2023/07/27 05:55:21;;;;;;;2.87;2.10;;;;;;;15.04;100.00;100488.31;5054605;28;19995;-37
2023/07/27 05:57:47;;;;;;;3.03;2.30;;;;;;;15.05;100.00;100484.50;5054992;28;20330;-37
2023/07/27 06:00:15;;;;;;;;;;;;;;;15.11;100.00;100489.69;5055417;28;20051;-37
2023/07/27 06:02:41;;;;;;;2.60;1.88;;;;;;;15.14;100.00;100488.34;5055044;28;20286;-37
2023/07/27 06:05:06;;;;;;;;;;;;;;;15.17;100.00;100485.88;5054712;28;20029;-37
2023/07/27 06:07:32;;;;;;;3.53;1.90;;;;;;;15.19;100.00;100486.44;5054005;28;19909;-37
2023/07/27 06:09:57;;;;;;;;;;;;;;;15.27;100.00;100476.09;5054309;28;20057;-37
2023/07/27 06:12:23;;;;;;;4.38;1.73;;;;;;;15.30;100.00;100481.00;5054463;28;19948;-37
2023/07/27 06:14:48;;;;;;;;;;;;;;;15.33;100.00;100473.13;5054774;28;20020;-37
2023/07/27 06:17:13;;;;;;;2.72;1.60;;;;;;;15.33;100.00;100472.31;5054088;28;20344;-37
2023/07/27 06:19:39;;;;;;;1.70;1.58;;;;;;;15.33;100.00;100480.47;5053760;28;20437;-37
2023/07/27 06:22:04;;;;;;;1.55;1.30;;;;;;;15.31;100.00;100466.28;5054318;28;20024;-37
2023/07/27 06:24:30;;;;;;;1.85;1.45;;;;;;;15.40;100.00;100476.38;5054472;28;20068;-37
2023/07/27 06:26:55;;;;;;;;;;;;;;;15.46;100.00;100477.19;5054675;28;20025;-37
2023/07/27 06:29:21;;;;;;;1.40;1.30;;;;;;;15.50;100.00;100470.09;5054092;28;19905;-37
2023/07/27 06:31:46;;;;;;;2.17;1.50;;;;;;;15.51;100.00;100458.13;5053943;28;20781;-37
2023/07/27 06:34:11;;;;;;;3.15;1.27;;;;;;;15.49;100.00;100451.31;5054340;28;20021;-37
2023/07/27 06:36:37;;;;;;;2.63;1.55;;;;;;;15.48;100.00;100439.59;5053365;28;20096;-37
2023/07/27 06:39:02;;;;;;;;;;;;;;;15.62;100.00;100458.94;5053739;28;20078;-37
2023/07/27 06:41:27;;;;;;;1.42;1.25;;;;;;;15.56;100.00;100454.56;5053769;28;19909;-37
2023/07/27 06:43:53;;;;;;;;;;;;;;;15.65;100.00;100461.94;5054159;28;20051;-37
2023/07/27 06:46:19;;;;;;;2.75;1.10;;;;;;;15.60;100.00;100445.56;5054514;28;19909;-37
2023/07/27 06:48:46;;;;;;;1.40;1.20;;;;;;;15.66;100.00;100447.25;5053618;28;20369;-37
2023/07/27 06:51:12;;;;;;;1.45;1.20;;;;;;;15.68;100.00;100449.69;5054465;28;20052;-37
2023/07/27 06:53:37;;;;;;;;;;;;;;;15.75;100.00;100447.50;5054006;28;20017;-37
2023/07/27 06:56:04;;;;;;;1.38;1.15;;;;;;;15.64;100.00;100443.97;5053828;28;19978;-36
2023/07/27 06:58:29;;;;;;;1.73;1.35;;;;;;;15.68;100.00;100453.25;5053238;28;20017;-36
2023/07/27 07:00:55;;;;;;;;;;;;;;;15.76;100.00;100451.84;5053925;28;20021;-36
2023/07/27 07:03:21;;;;;;;1.42;1.27;;;;;;;15.77;100.00;100461.69;5053709;28;19962;-36
2023/07/27 07:05:46;;;;;;;;;;;;;;;15.83;100.00;100452.41;5054458;28;20029;-36
2023/07/27 07:08:12;;;;;;;2.80;1.40;;;;;;;15.87;100.00;100458.94;5053734;28;19978;-36
2023/07/27 07:10:37;;;;;;;;;;;;;;;15.92;100.00;100452.66;5053737;28;20029;-36
2023/07/27 07:13:03;;;;;;;1.30;1.15;;;;;;;15.89;100.00;100439.56;5053860;28;19909;-36
2023/07/27 07:15:28;;;;;;;;;;;;;;;16.01;100.00;100442.00;5053747;28;20020;-36
2023/07/27 07:17:53;;;;;;;1.80;1.40;;;;;;;16.02;100.00;100449.91;5053675;28;19963;-36
2023/07/27 07:20:18;;;;;;;;;;;;;;;16.07;100.00;100447.16;5054765;28;20366;-36
2023/07/27 07:22:44;;;;;;;1.55;1.20;;;;;;;16.04;100.00;100446.91;5057708;28;19919;-36
2023/07/27 07:25:09;;;;;;;;;;;;;;;16.10;100.00;100452.06;5057758;28;20079;-37
2023/07/27 07:27:34;;;;;;;1.63;1.33;;;;;;;16.07;100.00;100439.00;5057558;28;19908;-36
2023/07/27 07:30:00;;;;;;;;;;;;;;;16.16;100.00;100455.59;5057415;28;20060;-36
2023/07/27 07:32:26;;;;;;;1.27;1.10;;;;;;;16.15;100.00;100445.75;5058060;28;20331;-36
2023/07/27 07:34:54;;;;;;;1.90;1.63;;;;;;;16.17;100.00;100449.06;5057147;28;20059;-37
2023/07/27 07:37:19;;;;;;;1.48;1.20;;;;;;;16.19;100.00;100444.13;5057187;28;20031;-37
2023/07/27 07:39:45;;;;;;;;;;;;;;;16.22;100.00;100438.13;5057627;28;20021;-37
2023/07/27 07:42:10;;;;;;;1.70;1.50;;;;;;;16.07;100.00;100417.16;5057309;28;19908;-37
2023/07/27 07:44:35;;;;;;;;;;;;;;;16.25;100.00;100437.56;5057152;28;20267;-37
2023/07/27 07:47:00;;;;;;;2.28;1.45;;;;;;;16.27;100.00;100432.66;5056955;28;20007;-37
2023/07/27 07:49:28;;;;;;;;;;;;;;;16.32;100.00;100429.91;5057889;28;20054;-37
2023/07/27 07:51:53;;;;;;;;;;;;;;;16.33;100.00;100425.25;5057607;28;19909;-37
2023/07/27 07:54:19;;;;;;;1.60;1.20;;;;;;;16.28;100.00;100419.81;5057332;28;19916;-37
2023/07/27 07:56:44;;;;;;;;;;;;;;;16.39;100.00;100422.22;5057494;28;20240;-37
2023/07/27 07:59:09;;;;;;;1.50;1.25;;;;;;;16.40;100.00;100423.88;5057231;28;19916;-37
2023/07/27 08:01:35;;;;;;;;;;;;;;;16.47;100.00;100418.91;5057106;28;20492;-37
2023/07/27 08:04:00;;;;;;;3.10;1.43;;;;;;;16.54;100.00;100418.59;5057168;28;19955;-37
2023/07/27 08:06:25;;;;;;;;;;;;;;;16.62;100.00;100415.28;5057297;28;20270;-37
2023/07/27 08:08:51;;;;;;;1.55;1.42;;;;;;;16.69;100.00;100421.25;5056789;28;20394;-37
2023/07/27 08:11:16;;;;;;;;;;;;;;;16.80;100.00;100415.78;5057309;28;20456;-37
2023/07/27 08:13:42;;;;;;;2.13;1.88;;;;;;;16.81;100.00;100412.75;5056444;28;19913;-37
2023/07/27 08:16:07;;;;;;;;;;;;;;;16.88;100.00;100418.69;5057448;28;20029;-37
2023/07/27 08:18:32;;;;;;;2.35;2.00;;;;;;;16.84;100.00;100417.66;5055950;28;19913;-38
2023/07/27 08:20:58;;;;;;;;;;;;;;;16.87;100.00;100425.25;5057107;28;20040;-37
2023/07/27 08:23:23;;;;;;;5.15;2.20;;;;;;;16.79;100.00;100411.38;5056521;28;19911;-37
2023/07/27 08:25:49;;;;;;;;;;;;;;;16.90;100.00;100426.63;5056960;28;20357;-37
2023/07/27 08:28:14;;;;;;;2.22;2.03;;;;;;;16.90;100.00;100421.16;5055896;28;20245;-37
2023/07/27 08:30:42;;;;;;;;;;;;;;;16.98;100.00;100415.91;5056087;28;20056;-37
2023/07/27 08:33:08;;;;;;;2.30;2.10;;;;;;;16.99;100.00;100406.63;5056886;28;19905;-37
2023/07/27 08:35:33;;;;;;;;;;;;;;;17.08;100.00;100416.91;5056408;28;20090;-37
2023/07/27 08:37:58;;;;;;;1.90;1.80;;;;;;;17.05;100.00;100410.13;5056766;28;19905;-37
2023/07/27 08:40:24;;;;;;;;;;;;;;;17.10;100.00;100399.16;5056076;28;20052;-37
2023/07/27 08:42:49;;;;;;;2.42;1.73;;;;;;;17.03;100.00;100404.16;5055714;28;19912;-37
2023/07/27 08:45:19;;;;;;;;;;;;;;;17.08;100.00;100406.00;5056268;28;20036;-37
2023/07/27 08:47:44;;;;;;;1.92;1.73;;;;;;;17.04;100.00;100397.56;5056650;28;19934;-37
2023/07/27 08:50:09;;;;;;;;;;;;;;;17.15;100.00;100401.03;5055835;28;20020;-37
2023/07/27 08:52:35;;;;;;;1.48;1.38;;;;;;;17.09;100.00;100386.59;5055754;28;19905;-37
2023/07/27 08:55:00;;;;;;;;;;;;;;;17.25;100.00;100390.03;5056418;28;20059;-37
2023/07/27 08:57:26;;;;;;;1.88;1.67;;;;;;;17.29;100.00;100393.81;5056438;28;19916;-37
2023/07/27 08:59:51;;;;;;;;;;;;;;;17.44;100.00;100393.69;5056303;28;20127;-37
2023/07/27 09:02:16;;;;;;;1.83;1.50;;;;;;;17.30;100.00;100387.25;5055520;28;20001;-37
2023/07/27 09:04:42;;;;;;;;;;;;;;;17.43;100.00;100388.50;5056435;28;20361;-37
2023/07/27 09:07:07;;;;;;;1.50;1.40;;;;;;;17.33;100.00;100394.88;5055451;28;19954;-37
2023/07/27 09:09:33;;;;;;;;;;;;;;;17.41;100.00;100399.72;5055780;28;20279;-37
2023/07/27 09:11:58;;;;;;;1.65;1.20;;;;;;;17.37;100.00;100395.09;5055871;28;19916;-37
2023/07/27 09:14:24;;;;;;;;;;;;;;;17.43;100.00;100397.53;5055462;28;20524;-37
2023/07/27 09:16:50;;;;;;;1.52;1.15;;;;;;;17.44;100.00;100403.81;5055257;28;20406;-37
2023/07/27 09:19:20;;;;;;;1.30;1.13;;;;;;;17.46;100.00;100401.59;5054827;28;20029;-37
2023/07/27 09:21:52;;;;;;;1.17;1.08;;;;;;;17.57;100.00;100400.41;5055479;28;20357;-37
2023/07/27 09:24:17;;;;;;;1.00;0.90;;;;;;;17.62;100.00;100389.41;5055342;28;20342;-37
2023/07/27 09:26:48;;;;;;;0.80;0.80;;;;;;;17.67;100.00;100397.56;5055617;28;20055;-36
2023/07/27 09:29:14;;;;;;;1.08;0.90;;;;;;;17.67;100.00;100394.84;5054636;28;20025;-36
2023/07/27 09:31:44;;;;;;;1.45;0.82;;;;;;;17.63;100.00;100393.78;5055263;28;20049;-36
2023/07/27 09:34:09;;;;;;;0.95;0.70;;;;;;;17.59;100.00;100379.06;5054598;28;20473;-36
2023/07/27 09:36:34;;;;;;;;;;;;;;;17.71;100.00;100386.84;5055616;28;20067;-36
2023/07/27 09:39:00;;;;;;;1.08;0.90;;;;;;;17.63;100.00;100393.78;5054436;28;20392;-38
2023/07/27 09:41:25;;;;;;;;;;;;;;;17.73;100.00;100390.97;5055819;28;20112;-38
2023/07/27 09:43:52;;;;;;;1.20;1.00;;;;;;;17.68;100.00;100387.44;5053935;28;19905;-38
2023/07/27 09:46:22;;;;;;;1.77;1.00;;;;;;;17.65;100.00;100377.88;5054935;28;20449;-37
2023/07/27 09:48:48;;;;;;;1.05;0.95;;;;;;;17.71;100.00;100389.56;5055184;28;20036;-36
2023/07/27 09:51:16;;;;;;;4.72;1.00;;;;;;;17.67;100.00;100391.28;5054919;28;20056;-37
2023/07/27 09:53:44;;;;;;;1.75;1.00;;;;;;;17.65;100.00;100390.75;5055264;28;20021;-38
2023/07/27 09:56:11;;;;;;;2.33;1.13;;;;;;;17.60;100.00;100379.84;5054544;28;20021;-38
2023/07/27 09:58:36;;;;;;;1.08;0.98;;;;;;;17.64;100.00;100381.72;5054514;28;20115;-37
2023/07/27 10:01:02;;;;;;;1.17;0.90;;;;;;;17.52;100.00;100375.84;5055412;28;20167;-37
2023/07/27 10:03:27;;;;;;;;;;;;;;;17.75;100.00;100396.13;5055096;28;20369;-37
2023/07/27 10:05:54;;;;;;;3.05;1.00;;;;;;;17.73;100.00;100385.50;5054325;28;19905;-37
2023/07/27 10:08:19;;;;;;;2.80;1.10;;;;;;;17.72;100.00;100404.91;5053954;28;20404;-37
2023/07/27 10:10:51;;;;;;;1.50;0.90;;;;;;;17.75;100.00;100396.94;5054828;28;20040;-37
2023/07/27 10:13:23;;;;;;;1.40;0.90;;;;;;;17.90;100.00;100395.97;5054431;28;20108;-37
2023/07/27 10:15:49;;;;;;;1.55;1.00;;;;;;;17.94;100.00;100394.28;5054429;28;20045;-37
2023/07/27 10:18:15;;;;;;;1.48;0.95;;;;;;;18.05;100.00;100385.97;5054641;28;20029;-37
2023/07/27 10:20:40;;;;;;;;;;;;;;;18.12;100.00;100387.25;5054436;28;20103;-37
2023/07/27 10:23:20;;;;;;;1.08;0.90;;;;;;;18.09;100.00;100385.09;5054819;28;20007;-37
2023/07/27 10:25:57;;;;;;;0.80;0.80;;;;;;;18.09;100.00;100387.81;5053977;28;20044;-37
2023/07/27 10:28:44;;;;;;;0.75;0.70;;;;;;;18.13;100.00;100394.34;5053941;28;20037;-37
2023/07/27 10:31:24;;;;;;;1.05;0.70;;;;;;;18.07;100.00;100383.75;5053885;28;20021;-37
2023/07/27 10:33:54;;;;;;;1.13;1.00;;;;;;;18.04;100.00;100387.06;5054130;28;20021;-38
2023/07/27 10:36:20;;;;;;;1.55;0.88;;;;;;;18.17;100.00;100400.88;5053495;28;20485;-38
2023/07/27 10:38:53;;;;;;;1.70;0.88;;;;;;;18.19;100.00;100387.69;5053650;28;20028;-38
2023/07/27 10:41:21;;;;;;;1.00;0.90;;;;;;;18.20;100.00;100389.34;5053768;28;20029;-37
2023/07/27 10:44:08;;;;;;;1.10;1.00;;;;;;;18.26;100.00;100387.34;5053670;28;20112;-38
2023/07/27 10:46:44;;;;;;;1.30;1.10;;;;;;;18.25;100.00;100397.50;5053920;28;20077;-38
2023/07/27 10:49:15;;;;;;;1.73;1.17;;;;;;;18.21;100.00;100380.03;5054465;28;20025;-37
2023/07/27 10:51:41;;;;;;;1.88;1.10;;;;;;;18.24;100.00;100401.31;5054432;28;20021;-38
2023/07/27 10:54:09;;;;;;;3.10;1.52;;;;;;;18.17;100.00;100370.75;5053392;28;20021;-38
2023/07/27 10:56:35;;;;;;;1.65;1.00;;;;;;;18.30;100.00;100391.13;5053851;28;20066;-37
2023/07/27 10:59:00;;;;;;;;;;;;;;;18.38;100.00;100389.66;5053703;28;20447;-38
2023/07/27 11:01:28;;;;;;;2.30;1.20;;;;;;;18.29;100.00;100392.22;5053835;28;19923;-38
2023/07/27 11:03:57;;;;;;;1.10;1.00;;;;;;;18.25;100.00;100400.22;5053745;28;20415;-38
2023/07/27 11:06:28;;;;;;;1.02;0.93;;;;;;;18.18;100.00;100391.53;5054022;28;20079;-38
2023/07/27 11:08:55;;;;;;;3.63;1.10;;;;;;;18.16;100.00;100392.97;5053092;28;20051;-38
2023/07/27 11:11:27;;;;;;;1.75;1.27;;;;;;;18.13;100.00;100391.59;5053398;28;20028;-38
2023/07/27 11:13:52;;;;;;;1.30;1.20;;;;;;;18.14;100.00;100386.94;5054253;28;20037;-38
2023/07/27 11:16:18;;;;;;;;;;;;;;;18.23;100.00;100393.41;5053607;28;20029;-38
2023/07/27 11:18:44;;;;;;;1.40;1.30;;;;;;;18.22;100.00;100392.59;5053281;28;19962;-38
2023/07/27 11:21:11;;;;;;;1.15;1.05;;;;;;;18.15;100.00;100377.63;5053404;28;20032;-38
2023/07/27 11:23:42;;;;;;;2.30;1.10;;;;;;;18.19;100.00;100371.28;5053271;28;20369;-37
2023/07/27 11:26:08;;;;;;;3.17;1.73;;;;;;;18.28;100.00;100379.66;5053022;28;20023;-37
2023/07/27 11:28:34;;;;;;;;;;;;;;;18.35;100.00;100385.59;5053673;28;20107;-38
2023/07/27 11:30:59;;;;;;;1.50;1.30;;;;;;;18.27;100.00;100378.84;5069032;28;19904;-38
2023/07/27 11:33:31;;;;;;;;;;;;;;;18.37;100.00;100388.03;5053404;28;20024;-37
2023/07/27 11:35:57;;;;;;;1.80;1.70;;;;;;;18.28;100.00;100380.47;5052967;28;19908;-38